Decoded Metar for LEPA (PALMA DE MALLORCA in SPAIN) (IATA:PMI) | Meteo·Mobile Aviation Weather
aviador You're here:

LEPA Decoded Metar

PALMA DE MALLORCA in SPAIN
Report Time2020-02-22 21:00:00
UTC Time2020-02-22 21:21:09
Flight Rules vfr VFR
Wind030° at 02 kt
W.Decomp.*RWY 06: 1.7 kt HW 1 kt LCW
Visibility9999 m
Phenomena:N/A
Clouds:Scattered 030 Hf
CeilingNone
Temp09°C (ISA -6)
Dew Point09°C (100% RH)
AAT8.1°C
QNH1033 hPa
Density Alt-1,207 ft
Elevation26 ft
Report Wrong Elevation
Raw Report
LEPA 222100Z 03002KT 9999 SCT030 09/09 Q1033 NOSIG=

Extra information for LEPA:More info

Metar Taf Metar & Taf Last 4 Metars F.Rules Stats Wind Profile Meteogram Temp Stats Airport Information Weather charts Add Link Nearby VenuesMetar ALERT Operation Metar Decoded Social comments

Webcam La Seu Palma